Weather History for Two Harbors, MN

Change the Weather History Date:

Sunday, September 2, 2012

  Actual Average Record
Temperature  
Mean Temperature 63 °F -  
Max Temperature 75 °F 70 °F 88 °F (1978)
Min Temperature 51 °F 51 °F 42 °F (1976)
Degree Days  
Heating Degree Days 2    
Growing Degree Days 13 (Base 50)    
Moisture  
Dew Point 54 °F    
Average Humidity 69    
Maximum Humidity 82    
Minimum Humidity 50    
Precipitation  
Precipitation 0.00 in - - ()
Sea Level Pressure  
Sea Level Pressure 29.96 in    
Wind  
Wind Speed 3 mph (ENE)    
Max Wind Speed 9 mph    
Max Gust Speed -    
Visibility 10 miles    
Events      
Averages and records for this station are not official NWS values.
T = Trace of Precipitation, MM = Missing Value Source: NWS Daily Summary

Daily Weather History Graph

Daily Weather History Graph

Search for Another Location

Airport:

Trip Planner

Search our weather history database for the weather conditions in past years. The results will help you decide how hot, cold, wet, or windy it might be!

Date:

Astronomy

Sep. 02, 2012 Rise Set
Actual Time 6:28 AM CDT 7:43 PM CDT
Civil Twilight 5:56 AM CDT 8:15 PM CDT
Nautical Twilight 5:18 AM CDT 8:52 PM CDT
Astronomical Twilight 4:38 AM CDT 9:33 PM CDT
Moon 8:16 PM CDT (9/2) 8:50 AM CDT (9/2)
Length of Visible Light 14h 18m
Length of Day
13h 15m
Waning Gibbous, 95% of the Moon is Illuminated
Sep 2
Waning Gibbous
Sep 8
Last Quarter
Sep 15
New
Sep 22
First Quarter
Sep 29
Full

Hourly Weather History & Observations

Time (CDT) Temp. Dew Point Humidity Pressure Visibility Wind Dir Wind Speed Gust Speed Precip Events Conditions
12:11 AM 55.4 °F 48.2 °F 77% 30.07 in 10.0 mi Calm Calm - N/A   Clear
12:31 AM 53.6 °F 48.2 °F 82% 30.06 in 10.0 mi North 3.5 mph - N/A   Clear
12:51 AM 55.4 °F 50.0 °F 82% 30.06 in 10.0 mi Calm Calm - N/A   Clear
1:11 AM 55.4 °F 50.0 °F 82% 30.06 in 10.0 mi North 4.6 mph - N/A   Clear
1:31 AM 55.4 °F 50.0 °F 82% 30.07 in 10.0 mi NNE 3.5 mph - N/A   Clear
1:51 AM 53.6 °F 48.2 °F 82% 30.06 in 10.0 mi Calm Calm - N/A   Clear
2:11 AM 53.6 °F 48.2 °F 82% 30.07 in 10.0 mi Calm Calm - N/A   Clear
2:31 AM 57.2 °F 51.8 °F 82% 30.06 in 10.0 mi NNE 6.9 mph - N/A   Clear
2:51 AM 57.2 °F 51.8 °F 82% 30.06 in 10.0 mi Calm Calm - N/A   Clear
3:11 AM 57.2 °F 51.8 °F 82% 30.05 in 10.0 mi NNE 4.6 mph - N/A   Clear
3:31 AM 55.4 °F 50.0 °F 82% 30.04 in 10.0 mi Calm Calm - N/A   Clear
3:51 AM 55.4 °F 50.0 °F 82% 30.05 in 10.0 mi Calm Calm - N/A   Clear
4:11 AM 53.6 °F 48.2 °F 82% 30.05 in 10.0 mi Calm Calm - N/A   Clear
4:32 AM 53.6 °F 48.2 °F 82% 30.04 in 10.0 mi Calm Calm - N/A   Clear
4:51 AM 53.6 °F 48.2 °F 82% 30.03 in 10.0 mi Calm Calm - N/A   Clear
5:11 AM 53.6 °F 48.2 °F 82% 30.04 in 10.0 mi Calm Calm - N/A   Clear
5:32 AM 53.6 °F 48.2 °F 82% 30.03 in 10.0 mi Calm Calm - N/A   Clear
6:11 AM 53.6 °F 48.2 °F 82% 30.02 in 10.0 mi Calm Calm - N/A   Clear
6:32 AM 53.6 °F 48.2 °F 82% 30.03 in 10.0 mi Calm Calm - N/A   Clear
6:51 AM 53.6 °F 48.2 °F 82% 30.04 in 10.0 mi Calm Calm - N/A   Clear
7:11 AM 51.8 °F 46.4 °F 82% 30.03 in 10.0 mi Calm Calm - N/A   Clear
7:31 AM 51.8 °F 46.4 °F 82% 30.02 in 10.0 mi Calm Calm - N/A   Clear
8:11 AM 60.8 °F 53.6 °F 77% 30.02 in 10.0 mi Calm Calm - N/A   Clear
8:31 AM 64.4 °F 53.6 °F 68% 30.02 in 10.0 mi Calm Calm - N/A   Clear
8:52 AM 64.4 °F 53.6 °F 68% 30.01 in 10.0 mi Calm Calm - N/A   Clear
9:11 AM 64.4 °F 55.4 °F 73% 30.01 in 10.0 mi Calm Calm - N/A   Clear
9:31 AM 66.2 °F 55.4 °F 68% 30.01 in 10.0 mi SE 4.6 mph - N/A   Clear
9:52 AM 68.0 °F 53.6 °F 60% 30.01 in 10.0 mi SSE 4.6 mph - N/A   Clear
10:11 AM 69.8 °F 53.6 °F 56% 30.01 in 10.0 mi SE 5.8 mph - N/A   Clear
10:31 AM 68.0 °F 55.4 °F 64% 29.99 in 10.0 mi ESE 8.1 mph - N/A   Clear
10:51 AM 69.8 °F 53.6 °F 56% 29.99 in 10.0 mi Calm Calm - N/A   Clear
11:11 AM 69.8 °F 55.4 °F 60% 30.00 in 10.0 mi SE 5.8 mph - N/A   Clear
11:32 AM 69.8 °F 55.4 °F 60% 29.99 in 10.0 mi East 4.6 mph - N/A   Clear
11:51 AM 69.8 °F 55.4 °F 60% 29.99 in 10.0 mi SE 6.9 mph - N/A   Clear
12:11 PM 71.6 °F 55.4 °F 57% 29.98 in 10.0 mi ESE 3.5 mph - N/A   Clear
12:32 PM 71.6 °F 55.4 °F 57% 29.97 in 7.0 mi ESE 3.5 mph - N/A   Clear
12:51 PM 71.6 °F 55.4 °F 57% 29.96 in 10.0 mi East 5.8 mph - N/A   Clear
1:11 PM 73.4 °F 55.4 °F 53% 29.95 in 10.0 mi ESE 5.8 mph - N/A   Clear
1:32 PM 73.4 °F 57.2 °F 57% 29.94 in 10.0 mi SE 5.8 mph - N/A   Clear
1:51 PM 73.4 °F 57.2 °F 57% 29.93 in 10.0 mi ESE 5.8 mph - N/A   Clear
2:11 PM 73.4 °F 55.4 °F 53% 29.92 in 10.0 mi East 6.9 mph - N/A   Clear
2:32 PM 75.2 °F 55.4 °F 50% 29.90 in 10.0 mi East 8.1 mph - N/A   Clear
2:51 PM 75.2 °F 57.2 °F 53% 29.90 in 10.0 mi ESE 4.6 mph - N/A   Clear
3:11 PM 75.2 °F 57.2 °F 53% 29.89 in 10.0 mi East 4.6 mph - N/A   Clear
3:32 PM 75.2 °F 57.2 °F 53% 29.89 in 10.0 mi East 5.8 mph - N/A   Clear
3:51 PM 75.2 °F 57.2 °F 53% 29.88 in 10.0 mi East 6.9 mph - N/A   Clear
4:11 PM 75.2 °F 57.2 °F 53% 29.88 in 10.0 mi East 8.1 mph - N/A   Clear
4:32 PM 75.2 °F 57.2 °F 53% 29.88 in 10.0 mi ENE 6.9 mph - N/A   Clear
4:51 PM 75.2 °F 57.2 °F 53% 29.87 in 10.0 mi ENE 6.9 mph - N/A   Clear
5:11 PM 75.2 °F 57.2 °F 53% 29.87 in 10.0 mi ENE 5.8 mph - N/A   Clear
5:32 PM 73.4 °F 57.2 °F 57% 29.87 in 10.0 mi East 6.9 mph - N/A   Clear
5:51 PM 71.6 °F 57.2 °F 60% 29.86 in 10.0 mi East 9.2 mph - N/A   Clear
6:11 PM 69.8 °F 57.2 °F 64% 29.86 in 10.0 mi East 5.8 mph - N/A   Clear
6:32 PM 69.8 °F 57.2 °F 64% 29.84 in 10.0 mi ENE 8.1 mph - N/A   Clear
6:51 PM 68.0 °F 57.2 °F 68% 29.84 in 10.0 mi ENE 8.1 mph - N/A   Clear
7:11 PM 68.0 °F 55.4 °F 64% 29.85 in 10.0 mi NE 5.8 mph - N/A   Clear
7:32 PM 66.2 °F 55.4 °F 68% 29.84 in 10.0 mi NNE 5.8 mph - N/A   Clear
7:51 PM 66.2 °F 55.4 °F 68% 29.86 in 10.0 mi NNE 3.5 mph - N/A   Clear
8:11 PM 66.2 °F 55.4 °F 68% 29.87 in 10.0 mi North 3.5 mph - N/A   Clear
8:32 PM 66.2 °F 55.4 °F 68% 29.87 in 10.0 mi NNE 3.5 mph - N/A   Clear
8:51 PM 64.4 °F 55.4 °F 73% 29.87 in 10.0 mi NNE 4.6 mph - N/A   Clear
9:11 PM 64.4 °F 55.4 °F 73% 29.86 in 10.0 mi NNE 3.5 mph - N/A   Clear
9:32 PM 64.4 °F 55.4 °F 73% 29.86 in 10.0 mi NNE 3.5 mph - N/A   Clear
9:51 PM 64.4 °F 55.4 °F 73% 29.86 in 10.0 mi NNE 3.5 mph - N/A   Clear
10:11 PM 62.6 °F 55.4 °F 77% 29.86 in 10.0 mi Calm Calm - N/A   Mostly Cloudy
10:32 PM 62.6 °F 55.4 °F 77% 29.85 in 10.0 mi Calm Calm - N/A   Mostly Cloudy
10:51 PM 62.6 °F 55.4 °F 77% 29.85 in 10.0 mi Calm Calm - N/A   Mostly Cloudy
11:51 PM 62.6 °F 55.4 °F 77% 29.84 in 10.0 mi Calm Calm - N/A   Scattered Clouds